createdAt,value
2023-05-17T00:00:40.563Z,11.17
2023-05-17T00:01:40.563Z,11.14
2023-05-17T00:02:40.570Z,11.13
2023-05-17T00:03:40.555Z,11.10
2023-05-17T00:04:40.583Z,11.09
2023-05-17T00:05:40.558Z,11.03
2023-05-17T00:06:40.515Z,10.98
2023-05-17T00:07:40.515Z,10.94
2023-05-17T00:08:40.475Z,10.92
2023-05-17T00:09:40.493Z,10.91
2023-05-17T00:10:40.521Z,10.81
2023-05-17T00:11:40.439Z,10.80
2023-05-17T00:12:40.450Z,10.78
2023-05-17T00:13:40.440Z,10.80
2023-05-17T00:14:40.443Z,10.78
2023-05-17T00:15:40.462Z,10.78
2023-05-17T00:16:40.436Z,10.78
2023-05-17T00:17:40.467Z,10.76
2023-05-17T00:18:40.478Z,10.71
2023-05-17T00:19:40.385Z,10.68
2023-05-17T00:20:40.418Z,10.63
2023-05-17T00:21:40.338Z,10.60
2023-05-17T00:22:40.316Z,10.58
2023-05-17T00:23:40.312Z,10.58
2023-05-17T00:24:40.324Z,10.55
2023-05-17T00:25:40.317Z,10.47
2023-05-17T00:26:40.288Z,10.44
2023-05-17T00:27:47.833Z,10.44
2023-05-17T00:28:40.278Z,10.46
2023-05-17T00:29:40.281Z,10.46
2023-05-17T00:30:40.270Z,10.44
2023-05-17T00:31:40.289Z,10.43
2023-05-17T00:32:40.269Z,10.42
2023-05-17T00:33:40.207Z,10.40
2023-05-17T00:34:40.279Z,10.39
2023-05-17T00:35:40.271Z,10.39
2023-05-17T00:36:40.241Z,10.37
2023-05-17T00:37:40.277Z,10.30
2023-05-17T00:38:40.339Z,10.24
2023-05-17T00:39:40.176Z,10.24
2023-05-17T00:40:40.274Z,10.24
2023-05-17T00:41:40.116Z,10.21
2023-05-17T00:42:40.095Z,10.17
2023-05-17T00:43:40.256Z,10.14
2023-05-17T00:44:40.088Z,10.14
2023-05-17T00:45:40.199Z,10.12
2023-05-17T00:46:40.112Z,10.12
2023-05-17T00:47:40.091Z,10.10
2023-05-17T00:48:40.204Z,10.07
2023-05-17T00:49:40.023Z,10.07
2023-05-17T00:50:40.091Z,10.07
2023-05-17T00:51:40.057Z,10.06
2023-05-17T00:52:40.027Z,10.06
2023-05-17T00:53:39.974Z,9.99
2023-05-17T00:54:40.191Z,9.97
2023-05-17T00:55:40.012Z,9.94
2023-05-17T00:56:39.944Z,9.85
2023-05-17T00:57:40.193Z,9.81
2023-05-17T00:58:40.135Z,9.79
2023-05-17T00:59:40.077Z,9.76
2023-05-17T01:00:40.050Z,9.75
2023-05-17T01:01:40.397Z,9.73
2023-05-17T01:02:39.933Z,9.68
2023-05-17T01:03:39.941Z,9.64
2023-05-17T01:04:39.939Z,9.64
2023-05-17T01:05:39.887Z,9.66
2023-05-17T01:06:39.930Z,9.70
2023-05-17T01:07:39.967Z,9.71
2023-05-17T01:08:39.892Z,9.76
2023-05-17T01:09:40.015Z,9.81
2023-05-17T01:10:40.063Z,9.85
2023-05-17T01:11:39.955Z,9.91
2023-05-17T01:12:39.970Z,9.96
2023-05-17T01:13:39.936Z,10.00
2023-05-17T01:14:39.901Z,10.06
2023-05-17T01:15:39.815Z,10.07
2023-05-17T01:16:40.059Z,10.12
2023-05-17T01:17:39.802Z,10.17
2023-05-17T01:18:39.865Z,10.21
2023-05-17T01:19:40.012Z,10.24
2023-05-17T01:20:39.845Z,10.26
2023-05-17T01:21:39.782Z,10.26
2023-05-17T01:22:39.827Z,10.28
2023-05-17T01:23:39.762Z,10.26
2023-05-17T01:24:39.951Z,10.28
2023-05-17T01:25:39.868Z,10.28
2023-05-17T01:26:39.687Z,10.30
2023-05-17T01:27:39.898Z,10.30
2023-05-17T01:28:39.628Z,10.26
2023-05-17T01:29:39.778Z,10.24
2023-05-17T01:30:39.583Z,10.21
2023-05-17T01:31:39.626Z,10.17
2023-05-17T01:32:39.829Z,10.14
2023-05-17T01:33:40.111Z,10.14
2023-05-17T01:34:39.697Z,10.12
2023-05-17T01:35:39.696Z,10.14
2023-05-17T01:36:39.561Z,10.14
2023-05-17T01:37:39.629Z,10.14
2023-05-17T01:38:39.706Z,10.14
2023-05-17T01:39:39.498Z,10.12
2023-05-17T01:40:39.688Z,10.12
2023-05-17T01:41:39.530Z,10.10
2023-05-17T01:42:39.633Z,10.09
2023-05-17T01:43:39.555Z,10.06
2023-05-17T01:44:39.411Z,10.01
2023-05-17T01:45:39.584Z,9.99
2023-05-17T01:46:39.425Z,9.94
2023-05-17T01:47:39.540Z,9.93
2023-05-17T01:48:39.459Z,9.94
2023-05-17T01:49:39.385Z,9.93
2023-05-17T01:50:39.534Z,9.96
2023-05-17T01:51:39.365Z,9.93
2023-05-17T01:52:39.612Z,9.94
2023-05-17T01:53:39.547Z,9.94
2023-05-17T01:54:39.507Z,9.93
2023-05-17T01:55:39.310Z,9.86
2023-05-17T01:56:39.534Z,9.82
2023-05-17T01:57:39.502Z,9.81
2023-05-17T01:58:39.622Z,9.82
2023-05-17T01:59:39.258Z,9.79
2023-05-17T02:00:39.397Z,9.81
2023-05-17T02:01:39.343Z,9.79
2023-05-17T02:02:39.430Z,9.79
2023-05-17T02:03:39.503Z,9.81
2023-05-17T02:04:39.322Z,9.81
2023-05-17T02:05:39.270Z,9.79
2023-05-17T02:06:39.268Z,9.79
2023-05-17T02:07:39.302Z,9.78
2023-05-17T02:08:39.371Z,9.78
2023-05-17T02:09:39.237Z,9.76
2023-05-17T02:10:39.258Z,9.71
2023-05-17T02:11:39.334Z,9.67
2023-05-17T02:12:39.269Z,9.64
2023-05-17T02:13:39.319Z,9.61
2023-05-17T02:14:39.133Z,9.58
2023-05-17T02:15:39.199Z,9.56
2023-05-17T02:16:39.284Z,9.56
2023-05-17T02:17:39.158Z,9.53
2023-05-17T02:18:39.504Z,9.56
2023-05-17T02:19:39.142Z,9.53
2023-05-17T02:20:39.115Z,9.52
2023-05-17T02:21:39.063Z,9.50
2023-05-17T02:22:39.301Z,9.49
2023-05-17T02:23:39.113Z,9.46
2023-05-17T02:24:39.044Z,9.46
2023-05-17T02:25:39.147Z,9.42
2023-05-17T02:26:39.099Z,9.42
2023-05-17T02:27:39.022Z,9.45
2023-05-17T02:28:39.419Z,9.46
2023-05-17T02:29:38.978Z,9.46
2023-05-17T02:30:39.082Z,9.49
2023-05-17T02:31:38.913Z,9.50
2023-05-17T02:32:39.115Z,9.50
2023-05-17T02:33:39.002Z,9.53
2023-05-17T02:34:39.226Z,9.56
2023-05-17T02:35:39.358Z,9.57
2023-05-17T02:36:39.020Z,9.58
2023-05-17T02:37:38.926Z,9.61
2023-05-17T02:38:39.110Z,9.61
2023-05-17T02:39:39.006Z,9.60
2023-05-17T02:40:38.925Z,9.57
2023-05-17T02:41:38.942Z,9.56
2023-05-17T02:42:38.854Z,9.56
2023-05-17T02:43:38.816Z,9.56
2023-05-17T02:44:38.798Z,9.52
2023-05-17T02:45:38.801Z,9.50
2023-05-17T02:46:39.026Z,9.52
2023-05-17T02:47:39.169Z,9.50
2023-05-17T02:48:39.170Z,9.53
2023-05-17T02:49:38.936Z,9.53
2023-05-17T02:50:38.828Z,9.53
2023-05-17T02:51:38.758Z,9.52
2023-05-17T02:52:38.757Z,9.50
2023-05-17T02:53:38.740Z,9.52
2023-05-17T02:54:38.690Z,9.53
2023-05-17T02:55:38.955Z,9.52
2023-05-17T02:56:38.769Z,9.53
2023-05-17T02:57:38.891Z,9.52
2023-05-17T02:58:38.812Z,9.52
2023-05-17T02:59:38.592Z,9.53
2023-05-17T03:00:38.679Z,9.53
2023-05-17T03:01:38.658Z,9.57
2023-05-17T03:02:38.741Z,9.60
2023-05-17T03:03:38.918Z,9.60
2023-05-17T03:04:38.649Z,9.63
2023-05-17T03:05:38.671Z,9.63
2023-05-17T03:06:38.744Z,9.64
2023-05-17T03:07:38.633Z,9.64
2023-05-17T03:08:38.779Z,9.64
2023-05-17T03:09:38.595Z,9.64
2023-05-17T03:10:38.577Z,9.63
2023-05-17T03:11:38.626Z,9.61
2023-05-17T03:12:38.917Z,9.61
2023-05-17T03:13:38.513Z,9.58
2023-05-17T03:14:38.532Z,9.52
2023-05-17T03:15:38.622Z,9.49
2023-05-17T03:16:38.546Z,9.48
2023-05-17T03:17:38.825Z,9.43
2023-05-17T03:18:38.570Z,9.40
2023-05-17T03:19:38.973Z,9.40
2023-05-17T03:20:38.516Z,9.39
2023-05-17T03:21:38.725Z,9.40
2023-05-17T03:22:38.492Z,9.42
2023-05-17T03:23:38.354Z,9.43
2023-05-17T03:24:38.640Z,9.42
2023-05-17T03:25:38.362Z,9.42
2023-05-17T03:26:38.453Z,9.40
2023-05-17T03:27:38.414Z,9.40
2023-05-17T03:28:38.275Z,9.42
2023-05-17T03:29:38.280Z,9.40
2023-05-17T03:30:38.655Z,9.40
2023-05-17T03:31:38.260Z,9.34
2023-05-17T03:32:38.315Z,9.34
2023-05-17T03:33:38.559Z,9.30
2023-05-17T03:34:38.258Z,9.28
2023-05-17T03:35:38.656Z,9.28
2023-05-17T03:36:38.348Z,9.27
2023-05-17T03:37:38.222Z,9.25
2023-05-17T03:38:38.286Z,9.25
2023-05-17T03:39:38.337Z,9.28
2023-05-17T03:40:38.374Z,9.30
2023-05-17T03:41:38.277Z,9.32
2023-05-17T03:42:38.144Z,9.32
2023-05-17T03:43:38.127Z,9.34
2023-05-17T03:44:38.218Z,9.38
2023-05-17T03:45:38.310Z,9.39
2023-05-17T03:46:38.086Z,9.42
2023-05-17T03:47:38.205Z,9.43
2023-05-17T03:48:38.201Z,9.45
2023-05-17T03:49:38.164Z,9.48
2023-05-17T03:50:38.212Z,9.46
2023-05-17T03:51:38.092Z,9.48
2023-05-17T03:52:38.360Z,9.48
2023-05-17T03:53:38.188Z,9.49
2023-05-17T03:54:38.168Z,9.49
2023-05-17T03:55:38.017Z,9.48
2023-05-17T03:56:38.258Z,9.49
2023-05-17T03:57:38.183Z,9.49
2023-05-17T03:58:38.125Z,9.49
2023-05-17T03:59:37.974Z,9.49
2023-05-17T04:00:38.082Z,9.49
2023-05-17T04:01:37.974Z,9.48
2023-05-17T04:02:38.336Z,9.46
2023-05-17T04:03:38.089Z,9.45
2023-05-17T04:04:37.926Z,9.42
2023-05-17T04:05:38.020Z,9.43
2023-05-17T04:06:38.075Z,9.43
2023-05-17T04:07:38.042Z,9.43
2023-05-17T04:08:37.940Z,9.46
2023-05-17T04:09:38.156Z,9.49
2023-05-17T04:10:38.250Z,9.49
2023-05-17T04:11:38.400Z,9.52
2023-05-17T04:12:38.139Z,9.58
2023-05-17T04:13:37.932Z,9.61
2023-05-17T04:14:38.162Z,9.64
2023-05-17T04:15:37.866Z,9.66
2023-05-17T04:16:37.928Z,9.68
2023-05-17T04:17:37.863Z,9.70
2023-05-17T04:18:38.051Z,9.75
2023-05-17T04:19:38.247Z,9.79
2023-05-17T04:20:38.549Z,9.83
2023-05-17T04:21:37.874Z,9.85
2023-05-17T04:22:37.955Z,9.86
2023-05-17T04:23:37.724Z,9.91
2023-05-17T04:24:37.766Z,9.93
2023-05-17T04:25:37.700Z,9.94
2023-05-17T04:26:37.816Z,9.97
2023-05-17T04:27:37.831Z,9.97
2023-05-17T04:28:38.239Z,9.99
2023-05-17T04:29:37.956Z,9.99
2023-05-17T04:30:37.730Z,10.00
2023-05-17T04:31:37.784Z,10.03
2023-05-17T04:32:38.149Z,10.01
2023-05-17T04:33:38.159Z,10.04
2023-05-17T04:34:37.691Z,10.04
2023-05-17T04:35:37.716Z,10.06
2023-05-17T04:36:37.598Z,10.07
2023-05-17T04:37:37.553Z,10.06
2023-05-17T04:38:37.513Z,10.04
2023-05-17T04:39:37.929Z,10.04
2023-05-17T04:40:37.764Z,10.06
2023-05-17T04:41:37.706Z,10.07
2023-05-17T04:42:37.531Z,10.07
2023-05-17T04:43:37.687Z,10.09
2023-05-17T04:44:37.493Z,10.07
2023-05-17T04:45:37.646Z,10.06
2023-05-17T04:46:37.441Z,10.06
2023-05-17T04:47:37.542Z,10.07
2023-05-17T04:48:37.491Z,10.09
2023-05-17T04:49:37.421Z,10.14
2023-05-17T04:50:37.590Z,10.10
2023-05-17T04:51:37.439Z,10.09
2023-05-17T04:52:37.586Z,10.12
2023-05-17T04:53:37.540Z,10.17
2023-05-17T04:54:37.800Z,10.25
2023-05-17T04:55:37.321Z,10.30
2023-05-17T04:56:37.428Z,10.33
2023-05-17T04:57:37.420Z,10.37
2023-05-17T04:58:37.348Z,10.32
2023-05-17T04:59:37.352Z,10.26
2023-05-17T05:00:37.352Z,10.26
2023-05-17T05:01:37.336Z,10.24
2023-05-17T05:02:37.506Z,10.18
2023-05-17T05:03:37.296Z,10.18
2023-05-17T05:04:37.331Z,10.17
2023-05-17T05:05:37.433Z,10.17
2023-05-17T05:06:37.266Z,10.18
2023-05-17T05:07:37.350Z,10.18
2023-05-17T05:08:37.210Z,10.21
2023-05-17T05:09:37.222Z,10.24
2023-05-17T05:10:37.268Z,10.19
2023-05-17T05:11:37.227Z,10.21
2023-05-17T05:12:37.331Z,10.25
2023-05-17T05:13:37.268Z,10.21
2023-05-17T05:14:37.726Z,10.19
2023-05-17T05:15:37.184Z,10.17
2023-05-17T05:16:37.173Z,10.12
2023-05-17T05:17:37.215Z,10.07
2023-05-17T05:18:37.337Z,10.04
2023-05-17T05:19:37.101Z,10.07
2023-05-17T05:20:37.057Z,10.10
2023-05-17T05:21:37.065Z,10.17
2023-05-17T05:22:37.037Z,10.21
2023-05-17T05:23:37.054Z,10.24
2023-05-17T05:24:37.001Z,10.25
2023-05-17T05:25:37.070Z,10.24
2023-05-17T05:26:36.991Z,10.25
2023-05-17T05:27:37.834Z,10.26
2023-05-17T05:28:36.961Z,10.26
2023-05-17T05:29:36.999Z,10.33
2023-05-17T05:30:36.971Z,10.36
2023-05-17T05:31:36.961Z,10.39
2023-05-17T05:32:37.007Z,10.46
2023-05-17T05:33:36.985Z,10.52
2023-05-17T05:34:36.928Z,10.52
2023-05-17T05:35:36.927Z,10.59
2023-05-17T05:36:36.894Z,10.66
2023-05-17T05:37:36.878Z,10.77
2023-05-17T05:38:36.842Z,10.83
2023-05-17T05:39:36.893Z,10.88
2023-05-17T05:40:36.838Z,10.95
2023-05-17T05:41:36.867Z,10.98
2023-05-17T05:42:36.805Z,11.02
2023-05-17T05:43:36.826Z,11.06
2023-05-17T05:44:36.793Z,11.13
2023-05-17T05:45:36.820Z,11.07
2023-05-17T05:46:36.793Z,11.06
2023-05-17T05:47:36.776Z,11.06
2023-05-17T05:48:36.845Z,11.09
2023-05-17T05:49:36.744Z,11.09
2023-05-17T05:50:36.719Z,11.11
2023-05-17T05:51:36.745Z,11.16
2023-05-17T05:52:36.714Z,11.16
2023-05-17T05:53:36.687Z,11.13
2023-05-17T05:54:36.696Z,11.10
2023-05-17T05:55:36.722Z,11.11
2023-05-17T05:56:36.707Z,11.11
2023-05-17T05:57:36.703Z,11.11
2023-05-17T05:58:36.657Z,11.02
2023-05-17T05:59:36.687Z,10.91
2023-05-17T06:00:36.607Z,10.86
2023-05-17T06:01:36.631Z,10.86
2023-05-17T06:02:36.629Z,10.88
2023-05-17T06:03:36.646Z,10.91
2023-05-17T06:04:45.073Z,10.91
2023-05-17T06:05:36.639Z,10.89
2023-05-17T06:06:36.966Z,10.91
2023-05-17T06:07:36.612Z,10.88
2023-05-17T06:08:36.547Z,10.86
2023-05-17T06:09:36.520Z,10.83
2023-05-17T06:10:36.557Z,10.78
2023-05-17T06:11:36.582Z,10.80
2023-05-17T06:12:36.598Z,10.80
2023-05-17T06:13:36.470Z,10.78
2023-05-17T06:14:36.456Z,10.77
2023-05-17T06:15:36.471Z,10.80
2023-05-17T06:16:36.464Z,10.81
2023-05-17T06:17:36.506Z,10.84
2023-05-17T06:18:36.550Z,10.92
2023-05-17T06:19:36.533Z,10.94
2023-05-17T06:20:36.490Z,10.95
2023-05-17T06:21:36.411Z,10.96
2023-05-17T06:22:36.364Z,10.95
2023-05-17T06:23:36.398Z,10.94
2023-05-17T06:24:36.358Z,10.91
2023-05-17T06:25:36.471Z,10.89
2023-05-17T06:26:36.375Z,10.84
2023-05-17T06:27:36.421Z,10.84
2023-05-17T06:28:36.357Z,10.84
2023-05-17T06:29:36.367Z,10.88
2023-05-17T06:30:36.871Z,10.89
2023-05-17T06:31:36.283Z,10.91
2023-05-17T06:32:36.321Z,10.94
2023-05-17T06:33:36.307Z,10.94
2023-05-17T06:34:36.251Z,10.91
2023-05-17T06:35:54.346Z,10.88
2023-05-17T06:36:37.619Z,10.91
2023-05-17T06:37:36.208Z,10.89
2023-05-17T06:38:36.226Z,10.89
2023-05-17T06:39:36.197Z,10.86
2023-05-17T06:40:36.626Z,10.89
2023-05-17T06:41:36.196Z,10.92
2023-05-17T06:42:36.181Z,10.95
2023-05-17T06:43:37.825Z,10.95
2023-05-17T06:44:36.181Z,10.94
2023-05-17T06:45:36.125Z,10.96
2023-05-17T06:46:36.129Z,10.95
2023-05-17T06:47:36.259Z,10.92
2023-05-17T06:48:36.246Z,10.88
2023-05-17T06:49:36.087Z,10.86
2023-05-17T06:50:36.057Z,10.83
2023-05-17T06:51:36.933Z,10.77
2023-05-17T06:52:36.057Z,10.71
2023-05-17T06:53:36.069Z,10.70
2023-05-17T06:54:36.048Z,10.70
2023-05-17T06:55:36.026Z,10.68
2023-05-17T06:56:36.010Z,10.63
2023-05-17T06:57:36.043Z,10.60
2023-05-17T06:58:36.004Z,10.63
2023-05-17T06:59:35.971Z,10.62
2023-05-17T07:00:35.966Z,10.63
2023-05-17T07:01:35.975Z,10.66
2023-05-17T07:02:36.034Z,10.66
2023-05-17T07:03:36.050Z,10.71
2023-05-17T07:04:35.946Z,10.74
2023-05-17T07:05:35.984Z,10.77
2023-05-17T07:06:35.916Z,10.81
2023-05-17T07:07:35.916Z,10.89
2023-05-17T07:08:35.931Z,10.96
2023-05-17T07:09:35.909Z,11.02
2023-05-17T07:10:35.858Z,11.03
2023-05-17T07:11:35.871Z,11.07
2023-05-17T07:12:35.880Z,11.13
2023-05-17T07:13:35.814Z,11.14
2023-05-17T07:14:35.807Z,11.17
2023-05-17T07:15:35.818Z,11.25
2023-05-17T07:16:35.779Z,11.34
2023-05-17T07:17:35.893Z,11.38
2023-05-17T07:18:35.858Z,11.39
2023-05-17T07:19:35.883Z,11.47
2023-05-17T07:20:35.757Z,11.53
2023-05-17T07:21:35.735Z,11.53
2023-05-17T07:22:35.733Z,11.54
2023-05-17T07:23:35.734Z,11.56
2023-05-17T07:24:35.702Z,11.59
2023-05-17T07:25:35.692Z,11.67
2023-05-17T07:26:35.735Z,11.77
2023-05-17T07:27:35.681Z,11.80
2023-05-17T07:28:35.648Z,11.83
2023-05-17T07:29:35.641Z,11.90
2023-05-17T07:30:35.637Z,11.93
2023-05-17T07:31:35.614Z,11.93
2023-05-17T07:32:35.867Z,11.85
2023-05-17T07:33:35.618Z,11.70
2023-05-17T07:34:35.804Z,11.68
2023-05-17T07:35:35.570Z,11.70
2023-05-17T07:36:35.617Z,11.71
2023-05-17T07:37:35.602Z,11.70
2023-05-17T07:38:35.546Z,11.70
2023-05-17T07:39:35.527Z,11.65
2023-05-17T07:40:35.713Z,11.64
2023-05-17T07:41:36.439Z,11.68
2023-05-17T07:42:35.541Z,11.71
2023-05-17T07:43:35.493Z,11.77
2023-05-17T07:44:35.478Z,11.83
2023-05-17T07:45:36.055Z,11.89
2023-05-17T07:46:35.502Z,11.99
2023-05-17T07:47:35.576Z,12.05
2023-05-17T07:48:35.773Z,12.02
2023-05-17T07:49:35.470Z,11.97
2023-05-17T07:50:35.413Z,11.99
2023-05-17T07:51:35.420Z,12.06
2023-05-17T07:52:35.402Z,12.08
2023-05-17T07:53:35.388Z,12.04
2023-05-17T07:54:35.375Z,11.90
2023-05-17T07:55:35.359Z,11.90
2023-05-17T07:56:35.356Z,12.02
2023-05-17T07:57:35.363Z,12.08
2023-05-17T07:58:35.376Z,12.11
2023-05-17T07:59:35.324Z,12.15
2023-05-17T08:00:35.311Z,12.29
2023-05-17T08:01:35.320Z,12.42
2023-05-17T08:02:35.343Z,12.42
2023-05-17T08:03:35.318Z,12.33
2023-05-17T08:04:35.280Z,12.23
2023-05-17T08:05:35.300Z,12.16
2023-05-17T08:06:35.274Z,12.08
2023-05-17T08:07:35.279Z,12.02
2023-05-17T08:08:35.228Z,12.05
2023-05-17T08:09:35.209Z,12.11
2023-05-17T08:10:35.187Z,12.15
2023-05-17T08:11:35.418Z,12.21
2023-05-17T08:12:35.945Z,12.26
2023-05-17T08:13:35.172Z,12.23
2023-05-17T08:14:35.150Z,12.21
2023-05-17T08:15:35.198Z,12.19
2023-05-17T08:16:35.126Z,12.08
2023-05-17T08:17:35.222Z,12.01
2023-05-17T08:18:35.251Z,11.90
2023-05-17T08:19:35.246Z,11.87
2023-05-17T08:20:35.079Z,11.96
2023-05-17T08:21:35.083Z,12.02
2023-05-17T08:22:35.175Z,12.12
2023-05-17T08:23:35.074Z,12.24
2023-05-17T08:24:35.035Z,12.33
2023-05-17T08:25:35.044Z,12.39
2023-05-17T08:26:35.049Z,12.37
2023-05-17T08:27:35.055Z,12.38
2023-05-17T08:28:35.017Z,12.37
2023-05-17T08:29:36.084Z,12.37
2023-05-17T08:30:34.977Z,12.42
2023-05-17T08:31:35.026Z,12.45
2023-05-17T08:32:35.011Z,12.41
2023-05-17T08:33:35.187Z,12.37
2023-05-17T08:34:34.950Z,12.29
2023-05-17T08:35:35.065Z,12.24
2023-05-17T08:36:34.997Z,12.19
2023-05-17T08:37:34.908Z,12.16
2023-05-17T08:38:34.918Z,12.16
2023-05-17T08:39:34.955Z,12.13
2023-05-17T08:40:34.925Z,12.16
2023-05-17T08:41:35.566Z,12.13
2023-05-17T08:42:34.869Z,12.12
2023-05-17T08:43:34.867Z,12.04
2023-05-17T08:44:34.824Z,12.05
2023-05-17T08:45:34.803Z,12.04
2023-05-17T08:46:34.793Z,12.11
2023-05-17T08:47:34.876Z,12.26
2023-05-17T08:48:34.811Z,12.42
2023-05-17T08:49:34.767Z,12.54
2023-05-17T08:50:34.738Z,12.56
2023-05-17T08:51:34.760Z,12.54
2023-05-17T08:52:34.802Z,12.54
2023-05-17T08:53:34.701Z,12.62
2023-05-17T08:54:34.704Z,12.71
2023-05-17T08:55:34.739Z,12.81
2023-05-17T08:56:34.681Z,12.93
2023-05-17T08:57:34.700Z,13.07
2023-05-17T08:58:44.752Z,13.27
2023-05-17T08:59:34.659Z,13.41
2023-05-17T09:00:34.664Z,13.52
2023-05-17T09:01:34.632Z,13.58
2023-05-17T09:02:34.766Z,13.59
2023-05-17T09:03:34.650Z,13.49
2023-05-17T09:04:34.645Z,13.43
2023-05-17T09:05:34.656Z,13.37
2023-05-17T09:06:34.555Z,13.27
2023-05-17T09:07:34.600Z,13.22
2023-05-17T09:08:34.543Z,13.14
2023-05-17T09:09:34.553Z,13.03
2023-05-17T09:10:34.571Z,12.99
2023-05-17T09:11:34.521Z,12.95
2023-05-17T09:12:34.524Z,12.92
2023-05-17T09:13:35.067Z,12.82
2023-05-17T09:14:34.497Z,12.82
2023-05-17T09:15:34.497Z,12.85
2023-05-17T09:16:34.488Z,12.87
2023-05-17T09:17:34.594Z,12.82
2023-05-17T09:18:34.506Z,12.69
2023-05-17T09:19:34.543Z,12.60
2023-05-17T09:20:34.538Z,12.62
2023-05-17T09:21:34.534Z,12.67
2023-05-17T09:22:34.438Z,12.74
2023-05-17T09:23:34.405Z,12.77
2023-05-17T09:24:34.410Z,12.84
2023-05-17T09:25:34.392Z,12.92
2023-05-17T09:26:34.362Z,12.95
2023-05-17T09:27:34.480Z,13.11
2023-05-17T09:28:34.323Z,13.17
2023-05-17T09:29:34.337Z,13.12
2023-05-17T09:30:34.368Z,13.00
2023-05-17T09:31:34.308Z,12.87
2023-05-17T09:32:34.369Z,12.82
2023-05-17T09:33:34.360Z,12.71
2023-05-17T09:34:34.298Z,12.62
2023-05-17T09:35:34.274Z,12.54
2023-05-17T09:36:34.247Z,12.56
2023-05-17T09:37:34.288Z,12.64
2023-05-17T09:38:34.248Z,12.78
2023-05-17T09:39:34.216Z,12.84
2023-05-17T09:40:34.243Z,12.88
2023-05-17T09:41:34.212Z,12.93
2023-05-17T09:42:34.194Z,13.02
2023-05-17T09:43:34.195Z,13.18
2023-05-17T09:44:34.183Z,13.27
2023-05-17T09:45:34.166Z,13.40
2023-05-17T09:46:34.152Z,13.52
2023-05-17T09:47:34.269Z,13.56
2023-05-17T09:48:34.262Z,13.73
2023-05-17T09:49:34.135Z,13.73
2023-05-17T09:50:34.111Z,13.81
2023-05-17T09:51:34.083Z,13.89
2023-05-17T09:52:34.128Z,13.91
2023-05-17T09:53:34.044Z,13.87
2023-05-17T09:54:34.099Z,13.70
2023-05-17T09:55:34.052Z,13.65
2023-05-17T09:56:34.058Z,13.58
2023-05-17T09:57:34.037Z,13.47
2023-05-17T09:58:34.048Z,13.37
2023-05-17T09:59:34.199Z,13.32
2023-05-17T10:00:33.991Z,13.27
2023-05-17T10:01:34.224Z,13.21
2023-05-17T10:02:34.054Z,13.14
2023-05-17T10:03:34.152Z,13.15
2023-05-17T10:04:33.992Z,13.15
2023-05-17T10:05:34.118Z,13.18
2023-05-17T10:06:46.077Z,13.17
2023-05-17T10:07:33.949Z,13.24
2023-05-17T10:08:33.905Z,13.21
2023-05-17T10:09:33.913Z,13.15
2023-05-17T10:10:33.905Z,13.07
2023-05-17T10:11:33.864Z,13.02
2023-05-17T10:12:33.900Z,13.07
2023-05-17T10:13:33.842Z,13.11
2023-05-17T10:14:33.923Z,13.32
2023-05-17T10:15:33.841Z,13.54
2023-05-17T10:16:33.813Z,13.67
2023-05-17T10:17:33.868Z,13.83
2023-05-17T10:18:33.925Z,13.95
2023-05-17T10:19:33.900Z,14.04
2023-05-17T10:20:33.812Z,14.24
2023-05-17T10:21:33.762Z,14.37
2023-05-17T10:22:33.778Z,14.61
2023-05-17T10:23:33.741Z,14.64
2023-05-17T10:24:33.750Z,14.56
2023-05-17T10:25:33.747Z,14.46
2023-05-17T10:26:33.730Z,14.39
2023-05-17T10:27:33.706Z,14.20
2023-05-17T10:28:33.703Z,14.01
2023-05-17T10:29:33.676Z,14.06
2023-05-17T10:30:33.693Z,14.09
2023-05-17T10:31:33.680Z,14.14
2023-05-17T10:32:33.667Z,14.09
2023-05-17T10:33:33.771Z,14.09
2023-05-17T10:34:33.613Z,14.14
2023-05-17T10:35:33.659Z,14.27
2023-05-17T10:36:33.712Z,14.25
2023-05-17T10:37:33.598Z,14.20
2023-05-17T10:38:41.824Z,14.14
2023-05-17T10:39:33.563Z,14.01
2023-05-17T10:40:33.631Z,13.89
2023-05-17T10:41:33.554Z,13.83
2023-05-17T10:42:33.545Z,13.74
2023-05-17T10:43:33.527Z,13.76
2023-05-17T10:44:33.513Z,13.87
2023-05-17T10:45:33.569Z,13.67
2023-05-17T10:46:33.486Z,13.65
2023-05-17T10:47:33.557Z,13.69
2023-05-17T10:48:33.504Z,13.73
2023-05-17T10:49:33.547Z,13.88
2023-05-17T10:50:33.459Z,14.01
2023-05-17T10:51:33.447Z,14.10
2023-05-17T10:52:33.459Z,14.27
2023-05-17T10:53:33.425Z,14.14
2023-05-17T10:54:33.390Z,13.95
2023-05-17T10:55:33.372Z,13.92
2023-05-17T10:56:33.392Z,14.04
2023-05-17T10:57:46.363Z,14.27
2023-05-17T10:58:33.360Z,14.47
2023-05-17T10:59:33.319Z,14.65
2023-05-17T11:00:33.364Z,14.75
2023-05-17T11:01:33.310Z,14.88
2023-05-17T11:02:33.379Z,14.88
2023-05-17T11:03:33.285Z,14.81
2023-05-17T11:04:33.307Z,14.61
2023-05-17T11:05:33.413Z,14.47
2023-05-17T11:06:33.377Z,14.34
2023-05-17T11:07:34.094Z,14.20
2023-05-17T11:08:33.235Z,14.10
2023-05-17T11:09:33.225Z,13.98
2023-05-17T11:10:33.200Z,14.04
2023-05-17T11:11:33.212Z,14.02
2023-05-17T11:12:34.270Z,13.88
2023-05-17T11:13:33.187Z,13.84
2023-05-17T11:14:33.159Z,13.88
2023-05-17T11:15:33.155Z,13.92
2023-05-17T11:16:33.147Z,13.77
2023-05-17T11:17:33.173Z,13.73
2023-05-17T11:18:36.409Z,13.80
2023-05-17T11:19:33.209Z,13.81
2023-05-17T11:20:33.537Z,14.04
2023-05-17T11:21:33.089Z,14.24
2023-05-17T11:22:33.094Z,14.46
2023-05-17T11:23:33.067Z,14.69
2023-05-17T11:24:33.103Z,14.86
2023-05-17T11:25:33.098Z,14.99
2023-05-17T11:26:33.044Z,15.02
2023-05-17T11:27:33.055Z,15.02
2023-05-17T11:28:33.043Z,14.94
2023-05-17T11:29:33.041Z,14.81
2023-05-17T11:30:33.009Z,14.74
2023-05-17T11:31:33.070Z,14.68
2023-05-17T11:32:33.077Z,14.68
2023-05-17T11:33:34.105Z,14.56
2023-05-17T11:34:33.077Z,14.49
2023-05-17T11:35:32.942Z,14.50
2023-05-17T11:36:32.951Z,14.54
2023-05-17T11:37:32.978Z,14.53
2023-05-17T11:38:33.111Z,14.71
2023-05-17T11:39:32.943Z,15.01
2023-05-17T11:40:32.935Z,15.13
2023-05-17T11:41:32.882Z,15.20
2023-05-17T11:42:32.874Z,15.13
2023-05-17T11:43:32.931Z,15.02
2023-05-17T11:44:32.867Z,14.95
2023-05-17T11:45:32.841Z,14.93
2023-05-17T11:46:32.819Z,14.81
2023-05-17T11:47:32.888Z,14.60
2023-05-17T11:48:33.055Z,14.54
2023-05-17T11:49:36.396Z,14.42
2023-05-17T11:50:32.806Z,14.31
2023-05-17T11:51:32.788Z,14.31
2023-05-17T11:52:32.752Z,14.34
2023-05-17T11:53:32.794Z,14.35
2023-05-17T11:54:32.718Z,14.39
2023-05-17T11:55:32.719Z,14.43
2023-05-17T11:56:42.689Z,14.38
2023-05-17T11:57:32.735Z,14.39
2023-05-17T11:58:32.740Z,14.50
2023-05-17T11:59:32.681Z,14.64
2023-05-17T12:00:32.661Z,14.65
2023-05-17T12:01:32.672Z,14.65
2023-05-17T12:02:32.679Z,14.78
2023-05-17T12:03:32.656Z,14.83
2023-05-17T12:04:33.262Z,14.88
2023-05-17T12:05:32.613Z,14.91
2023-05-17T12:06:32.683Z,15.02
2023-05-17T12:07:32.610Z,15.09
2023-05-17T12:08:32.616Z,15.23
2023-05-17T12:09:32.558Z,15.24
2023-05-17T12:10:34.586Z,15.30
2023-05-17T12:11:32.577Z,15.27
2023-05-17T12:12:32.540Z,15.23
2023-05-17T12:13:32.527Z,15.23
2023-05-17T12:14:32.525Z,15.05
2023-05-17T12:15:32.495Z,14.71
2023-05-17T12:16:32.490Z,14.61
2023-05-17T12:17:32.590Z,14.42
2023-05-17T12:18:32.585Z,14.35
2023-05-17T12:19:32.699Z,14.34
2023-05-17T12:20:32.676Z,14.54
2023-05-17T12:21:32.435Z,14.87
2023-05-17T12:22:32.420Z,14.98
2023-05-17T12:23:32.429Z,15.03
2023-05-17T12:24:32.409Z,14.93
2023-05-17T12:25:32.401Z,14.87
2023-05-17T12:26:32.382Z,14.69
2023-05-17T12:27:32.354Z,14.69
2023-05-17T12:28:32.371Z,14.75
2023-05-17T12:29:32.344Z,14.68
2023-05-17T12:30:32.335Z,14.68
2023-05-17T12:31:32.347Z,14.62
2023-05-17T12:32:32.395Z,14.68
2023-05-17T12:33:32.347Z,14.91
2023-05-17T12:34:32.285Z,14.83
2023-05-17T12:35:32.295Z,14.81
2023-05-17T12:36:32.275Z,14.65
2023-05-17T12:37:32.267Z,14.87
2023-05-17T12:38:32.258Z,15.09
2023-05-17T12:39:32.253Z,15.28
2023-05-17T12:40:32.219Z,15.38
2023-05-17T12:41:32.227Z,15.42
2023-05-17T12:42:32.231Z,15.51
2023-05-17T12:43:32.227Z,15.48
2023-05-17T12:44:32.163Z,15.43
2023-05-17T12:45:32.190Z,15.33
2023-05-17T12:46:32.148Z,15.03
2023-05-17T12:47:32.261Z,14.99
2023-05-17T12:48:32.179Z,15.01
2023-05-17T12:49:32.140Z,15.08
2023-05-17T12:50:32.172Z,14.98
2023-05-17T12:51:32.111Z,14.91
2023-05-17T12:52:32.106Z,14.88
2023-05-17T12:53:32.087Z,14.83
2023-05-17T12:54:32.070Z,14.93
2023-05-17T12:55:32.054Z,14.95
2023-05-17T12:56:32.029Z,14.99
2023-05-17T12:57:32.031Z,15.21
2023-05-17T12:58:32.039Z,15.56